Terminal Aerodrome Forecast
Issued by NWS

Home | Current Version | Previous Version | Text Only | Print | Product List | Glossary On
Versions: 1 2 3 4 5 6 7 8 9 10 11 12 13 14 15 16 17 18 19
000
FTUS46 KSEW 010500
TAFOLM
TAF
KOLM 010529Z 0106/0206 30008KT P6SM SCT030 BKN070
     FM010900 00000KT P6SM BKN025 BKN040
     FM011100 00000KT P6SM OVC020
     FM011700 22005KT P6SM BKN040
     FM011900 24005KT P6SM SCT050
     FM020000 29005KT P6SM BKN050=

USA.gov is the U.S. government's official web portal to all federal, state and local government web resources and services.